createdAt,value
2023-01-20T00:01:39.934Z,91.03
2023-01-20T00:04:07.813Z,91.05
2023-01-20T00:06:36.078Z,91.03
2023-01-20T00:09:05.325Z,91.03
2023-01-20T00:11:33.544Z,91.01
2023-01-20T00:14:02.618Z,91.00
2023-01-20T00:16:32.209Z,91.00
2023-01-20T00:19:00.608Z,91.02
2023-01-20T00:21:28.431Z,91.02
2023-01-20T00:23:56.507Z,91.03
2023-01-20T00:26:25.168Z,91.02
2023-01-20T00:28:55.052Z,90.99
2023-01-20T00:31:25.840Z,90.99
2023-01-20T00:33:56.111Z,91.01
2023-01-20T00:36:25.729Z,91.06
2023-01-20T00:38:54.007Z,91.07
2023-01-20T00:41:21.860Z,91.07
2023-01-20T00:43:50.070Z,91.10
2023-01-20T00:46:18.031Z,91.12
2023-01-20T00:48:46.580Z,91.16
2023-01-20T00:51:14.570Z,91.15
2023-01-20T00:53:42.414Z,91.17
2023-01-20T00:56:10.279Z,91.18
2023-01-20T00:58:38.059Z,91.21
2023-01-20T07:00:16.642Z,91.37
2023-01-20T07:02:44.554Z,91.35
2023-01-20T07:05:12.872Z,91.35
2023-01-20T07:07:44.485Z,91.36
2023-01-20T07:10:12.934Z,91.39
2023-01-20T07:12:40.694Z,91.40
2023-01-20T07:15:08.921Z,91.40
2023-01-20T07:17:36.707Z,91.42
2023-01-20T07:20:05.164Z,91.41
2023-01-20T07:22:32.970Z,91.41
2023-01-20T07:25:00.761Z,91.41
2023-01-20T07:27:28.533Z,91.41
2023-01-20T07:29:56.362Z,91.41
2023-01-20T07:32:24.183Z,91.40
2023-01-20T07:34:51.990Z,91.38
2023-01-20T07:37:19.762Z,91.36
2023-01-20T07:39:47.628Z,91.35
2023-01-20T07:42:15.384Z,91.35
2023-01-20T07:44:43.191Z,91.32
2023-01-20T07:47:10.925Z,91.33
2023-01-20T07:49:38.773Z,91.32
2023-01-20T07:52:06.641Z,91.31
2023-01-20T07:54:34.954Z,91.29
2023-01-20T07:57:02.782Z,91.27
2023-01-20T07:59:30.655Z,91.23
2023-01-20T08:01:58.478Z,91.19
2023-01-20T08:04:26.454Z,91.16
2023-01-20T08:06:54.448Z,91.11
2023-01-20T08:09:22.130Z,91.05
2023-01-20T08:11:49.983Z,90.99
2023-01-20T08:14:17.737Z,90.95
2023-01-20T08:16:45.753Z,90.93
2023-01-20T08:19:13.678Z,90.89
2023-01-20T08:21:41.473Z,90.85
2023-01-20T08:24:10.767Z,90.81
2023-01-20T08:26:38.528Z,90.75
2023-01-20T08:29:10.225Z,90.74
2023-01-20T08:31:38.588Z,90.74
2023-01-20T08:34:06.599Z,90.67
2023-01-20T08:36:37.234Z,90.65
2023-01-20T08:39:08.170Z,90.60
2023-01-20T08:41:38.496Z,90.53
2023-01-20T08:44:08.163Z,90.47
2023-01-20T08:46:39.857Z,90.47
2023-01-20T08:49:13.049Z,90.48
2023-01-20T08:51:41.102Z,90.45
2023-01-20T08:54:09.602Z,90.49
2023-01-20T08:56:37.464Z,90.43
2023-01-20T08:59:05.328Z,90.20
2023-01-20T09:01:36.324Z,90.22
2023-01-20T09:04:07.082Z,90.12
2023-01-20T09:06:44.807Z,90.17
2023-01-20T09:09:14.303Z,90.27
2023-01-20T09:11:44.994Z,90.28
2023-01-20T09:14:12.985Z,90.28
2023-01-20T09:16:40.764Z,90.29
2023-01-20T09:19:08.608Z,90.29
2023-01-20T09:21:36.505Z,90.26
2023-01-20T09:24:05.490Z,90.25
2023-01-20T09:26:38.753Z,90.27
2023-01-20T09:29:10.845Z,90.28
2023-01-20T09:31:44.705Z,90.33
2023-01-20T09:34:21.621Z,90.25
2023-01-20T09:37:19.931Z,90.16
2023-01-20T09:40:07.063Z,90.08
2023-01-20T09:43:14.835Z,90.14
2023-01-20T09:45:56.765Z,90.15
2023-01-20T09:48:49.551Z,90.14
2023-01-20T09:51:51.432Z,90.04
2023-01-20T09:54:25.928Z,89.86
2023-01-20T09:56:58.120Z,89.65
2023-01-20T09:59:41.246Z,89.45
2023-01-20T10:02:18.878Z,89.49
2023-01-20T10:04:52.725Z,89.45
2023-01-20T10:07:51.436Z,89.51
2023-01-20T10:10:35.302Z,89.55
2023-01-20T10:13:08.594Z,89.49
2023-01-20T10:15:37.934Z,89.25
2023-01-20T10:18:06.075Z,89.29
2023-01-20T10:20:37.504Z,89.27
2023-01-20T10:23:16.111Z,89.18
2023-01-20T10:26:28.881Z,88.54
2023-01-20T10:29:04.293Z,88.63
2023-01-20T10:31:38.245Z,88.35
2023-01-20T10:34:17.325Z,88.40
2023-01-20T10:36:51.008Z,88.49
2023-01-20T10:39:35.576Z,88.62
2023-01-20T10:42:10.111Z,88.55
2023-01-20T10:44:38.052Z,88.65
2023-01-20T10:47:37.150Z,88.71
2023-01-20T10:50:33.337Z,88.68
2023-01-20T10:53:19.268Z,88.37
2023-01-20T10:56:13.059Z,88.53
2023-01-20T10:58:45.315Z,88.41
2023-01-20T11:01:19.221Z,88.27
2023-01-20T11:03:48.992Z,88.41
2023-01-20T11:06:22.365Z,88.34
2023-01-20T11:08:50.185Z,88.54
2023-01-20T11:11:21.852Z,88.57
2023-01-20T11:13:54.050Z,88.66
2023-01-20T11:16:29.030Z,88.53
2023-01-20T11:19:06.171Z,88.62
2023-01-20T11:21:36.994Z,88.65
2023-01-20T11:24:31.884Z,88.75
2023-01-20T11:27:11.359Z,88.54
2023-01-20T11:29:45.095Z,88.58
2023-01-20T11:32:45.422Z,88.62
2023-01-20T11:35:24.558Z,88.76
2023-01-20T11:37:52.775Z,88.76
2023-01-20T11:40:26.699Z,88.64
2023-01-20T11:42:55.419Z,88.59
2023-01-20T11:45:27.433Z,88.53
2023-01-20T11:48:15.976Z,88.31
2023-01-20T11:50:50.275Z,88.41
2023-01-20T11:53:26.203Z,88.51
2023-01-20T11:56:18.385Z,88.29
2023-01-20T11:58:57.744Z,88.33
2023-01-20T12:01:30.804Z,87.75
2023-01-20T12:04:17.844Z,87.76
2023-01-20T12:07:07.348Z,87.87
2023-01-20T12:09:44.994Z,88.00
2023-01-20T12:12:36.153Z,87.97
2023-01-20T12:15:11.218Z,87.88
2023-01-20T12:17:45.853Z,87.92
2023-01-20T12:20:21.046Z,87.96
2023-01-20T12:23:01.828Z,88.00
2023-01-20T12:25:43.517Z,87.96
2023-01-20T12:28:25.303Z,88.01
2023-01-20T12:30:59.426Z,87.86
2023-01-20T12:33:33.120Z,87.60
2023-01-20T12:36:06.101Z,87.57
2023-01-20T12:38:53.635Z,87.37
2023-01-20T12:41:57.027Z,86.93
2023-01-20T12:44:32.165Z,87.13
2023-01-20T12:47:33.775Z,87.22
2023-01-20T12:50:14.104Z,87.20
2023-01-20T12:52:55.564Z,87.22
2023-01-20T12:55:37.868Z,87.17
2023-01-20T12:58:40.060Z,86.75
2023-01-20T13:01:29.669Z,86.57
2023-01-20T13:04:35.527Z,86.86
2023-01-20T13:07:21.560Z,87.03
2023-01-20T13:09:55.157Z,87.11
2023-01-20T13:12:41.769Z,86.88
2023-01-20T13:15:34.815Z,86.96
2023-01-20T13:18:26.026Z,87.20
2023-01-20T13:20:55.631Z,87.19
2023-01-20T13:23:29.739Z,87.26
2023-01-20T13:26:00.249Z,87.23
2023-01-20T13:28:30.413Z,87.26
2023-01-20T13:31:00.744Z,87.20
2023-01-20T13:33:28.695Z,87.26
2023-01-20T13:35:57.711Z,87.37
2023-01-20T13:38:33.129Z,87.43
2023-01-20T13:41:06.482Z,87.35
2023-01-20T13:43:53.427Z,87.25
2023-01-20T13:46:21.439Z,87.01
2023-01-20T13:49:11.381Z,86.36
2023-01-20T13:51:39.143Z,86.24
2023-01-20T13:54:34.360Z,86.27
2023-01-20T13:57:20.597Z,86.35
2023-01-20T13:59:48.353Z,86.23
2023-01-20T14:02:18.043Z,86.43
2023-01-20T14:04:46.344Z,86.09
2023-01-20T14:07:28.800Z,86.12
2023-01-20T14:09:59.555Z,86.11
2023-01-20T14:12:27.910Z,86.22
2023-01-20T14:14:55.977Z,86.43
2023-01-20T14:17:24.972Z,86.45
2023-01-20T14:19:55.815Z,86.75
2023-01-20T14:22:30.168Z,86.90
2023-01-20T14:25:00.807Z,87.13
2023-01-20T14:27:32.406Z,87.22
2023-01-20T14:30:14.681Z,87.30
2023-01-20T14:32:42.686Z,87.13
2023-01-20T14:35:28.168Z,86.86
2023-01-20T14:37:56.227Z,86.97
2023-01-20T14:40:35.997Z,86.89
2023-01-20T14:43:15.526Z,86.83
2023-01-20T14:45:46.863Z,86.94
2023-01-20T14:48:28.259Z,86.87
2023-01-20T14:51:02.829Z,87.04
2023-01-20T14:53:30.846Z,87.20
2023-01-20T14:56:17.822Z,87.43
2023-01-20T14:58:54.006Z,87.33
2023-01-20T15:01:25.442Z,87.21
2023-01-20T15:03:59.074Z,87.19
2023-01-20T15:06:27.135Z,87.07
2023-01-20T15:09:06.120Z,86.84
2023-01-20T15:11:35.758Z,87.13
2023-01-20T15:14:06.088Z,87.20
2023-01-20T15:16:36.731Z,87.46
2023-01-20T15:19:13.857Z,87.55
2023-01-20T15:21:46.697Z,87.55
2023-01-20T15:24:22.330Z,87.59
2023-01-20T15:26:52.561Z,87.66
2023-01-20T15:29:29.328Z,87.83
2023-01-20T15:32:09.387Z,87.82
2023-01-20T15:34:37.382Z,87.90
2023-01-20T15:37:17.260Z,87.72
2023-01-20T15:39:45.177Z,87.57
2023-01-20T15:42:15.399Z,87.38
2023-01-20T15:44:43.150Z,87.16
2023-01-20T15:47:21.247Z,87.10
2023-01-20T15:49:49.521Z,87.02
2023-01-20T15:52:18.308Z,87.04
2023-01-20T15:54:46.744Z,87.01
2023-01-20T15:57:17.625Z,87.14
2023-01-20T15:59:46.543Z,87.04
2023-01-20T16:02:20.575Z,86.96
2023-01-20T16:04:49.998Z,86.87
2023-01-20T16:07:21.355Z,86.81
2023-01-20T16:09:49.615Z,86.81
2023-01-20T16:12:19.478Z,86.73
2023-01-20T16:14:48.061Z,86.74
2023-01-20T16:17:19.671Z,86.83
2023-01-20T16:19:49.422Z,86.93
2023-01-20T16:22:18.213Z,86.91
2023-01-20T16:24:49.233Z,86.97
2023-01-20T16:27:20.835Z,87.01
2023-01-20T16:29:49.895Z,87.08
2023-01-20T16:32:22.113Z,87.09
2023-01-20T16:34:50.849Z,87.08
2023-01-20T16:37:19.227Z,87.11
2023-01-20T16:39:47.499Z,87.17
2023-01-20T16:42:17.275Z,87.23
2023-01-20T16:44:45.603Z,87.29
2023-01-20T16:47:14.080Z,87.40
2023-01-20T16:49:42.643Z,87.54
2023-01-20T16:52:12.379Z,87.65
2023-01-20T16:54:41.226Z,87.67
2023-01-20T16:57:10.657Z,87.78
2023-01-20T16:59:38.941Z,87.80
2023-01-20T17:02:07.449Z,87.83
2023-01-20T17:04:36.121Z,87.73
2023-01-20T17:07:04.266Z,87.84
2023-01-20T17:09:32.434Z,87.89
2023-01-20T17:12:00.679Z,87.94
2023-01-20T17:14:28.894Z,87.82
2023-01-20T17:16:58.649Z,87.91
2023-01-20T17:19:27.069Z,88.07
2023-01-20T17:21:57.053Z,88.10
2023-01-20T17:24:26.855Z,88.08
2023-01-20T17:26:55.299Z,88.15
2023-01-20T17:29:23.539Z,88.21
2023-01-20T17:31:52.331Z,88.19
2023-01-20T17:34:20.735Z,88.17
2023-01-20T17:36:49.137Z,88.02
2023-01-20T17:39:17.464Z,87.91
2023-01-20T17:41:46.157Z,87.72
2023-01-20T17:44:14.944Z,87.40
2023-01-20T17:46:43.422Z,86.84
2023-01-20T17:49:11.848Z,86.77
2023-01-20T17:51:41.116Z,86.90
2023-01-20T17:54:09.867Z,86.91
2023-01-20T17:56:38.815Z,86.90
2023-01-20T17:59:07.249Z,86.95
2023-01-20T18:01:35.671Z,86.95
2023-01-20T18:04:06.732Z,86.86
2023-01-20T18:06:35.733Z,86.78
2023-01-20T18:09:07.501Z,86.37
2023-01-20T18:11:37.791Z,86.04
2023-01-20T18:14:07.180Z,85.99
2023-01-20T18:16:41.953Z,85.91
2023-01-20T18:19:13.299Z,85.77
2023-01-20T18:21:43.701Z,85.96
2023-01-20T18:24:13.767Z,85.99
2023-01-20T18:26:45.315Z,86.13
2023-01-20T18:29:16.809Z,86.20
2023-01-20T18:31:46.841Z,86.34
2023-01-20T18:34:16.396Z,86.41
2023-01-20T18:36:46.439Z,86.35
2023-01-20T18:39:17.758Z,86.35
2023-01-20T18:41:47.226Z,86.45
2023-01-20T18:44:15.744Z,86.47
2023-01-20T18:46:44.130Z,86.54
2023-01-20T18:49:14.964Z,86.76
2023-01-20T18:51:43.844Z,86.92
2023-01-20T18:54:15.188Z,86.86
2023-01-20T18:56:43.954Z,86.89
2023-01-20T18:59:13.361Z,86.96
2023-01-20T19:01:42.582Z,86.89
2023-01-20T19:04:13.644Z,86.90
2023-01-20T19:06:45.073Z,86.89
2023-01-20T19:09:16.121Z,86.93
2023-01-20T19:11:44.062Z,86.96
2023-01-20T19:14:14.094Z,87.05
2023-01-20T19:16:45.402Z,86.89
2023-01-20T19:19:13.748Z,86.88
2023-01-20T19:21:42.489Z,86.84
2023-01-20T19:24:17.354Z,86.79
2023-01-20T19:26:45.441Z,86.80
2023-01-20T19:29:16.089Z,86.72
2023-01-20T19:31:44.242Z,86.72
2023-01-20T19:34:13.289Z,86.73
2023-01-20T19:36:43.606Z,86.79
2023-01-20T19:39:11.886Z,86.70
2023-01-20T19:41:39.855Z,86.77
2023-01-20T19:44:08.170Z,86.82
2023-01-20T19:46:39.636Z,86.74
2023-01-20T19:49:08.284Z,86.75
2023-01-20T19:51:36.838Z,86.84
2023-01-20T19:54:06.338Z,86.85
2023-01-20T19:56:36.556Z,86.92
2023-01-20T19:59:06.245Z,86.76
2023-01-20T20:01:37.169Z,86.87
2023-01-20T20:04:14.318Z,86.84
2023-01-20T20:06:46.976Z,86.73
2023-01-20T20:09:19.189Z,86.73
2023-01-20T20:11:48.663Z,86.79
2023-01-20T20:14:19.644Z,86.76
2023-01-20T20:16:48.152Z,86.80
2023-01-20T20:19:19.124Z,86.89
2023-01-20T20:21:47.391Z,86.86
2023-01-20T20:24:16.987Z,87.02
2023-01-20T20:26:46.421Z,87.18
2023-01-20T20:29:15.883Z,87.18
2023-01-20T20:31:43.907Z,87.19
2023-01-20T20:34:15.354Z,87.23
2023-01-20T20:36:43.920Z,87.12
2023-01-20T20:39:16.667Z,87.17
2023-01-20T20:41:45.354Z,87.18
2023-01-20T20:44:13.555Z,86.88
2023-01-20T20:46:41.671Z,86.77
2023-01-20T20:49:15.989Z,86.89
2023-01-20T20:51:44.103Z,86.92
2023-01-20T20:54:14.198Z,86.82
2023-01-20T20:56:42.168Z,86.69
2023-01-20T20:59:10.454Z,86.65
2023-01-20T21:01:38.324Z,86.70
2023-01-20T21:04:06.687Z,86.64
2023-01-20T21:06:34.554Z,86.65
2023-01-20T21:09:02.423Z,86.66
2023-01-20T21:11:30.241Z,86.65
2023-01-20T21:13:58.558Z,86.62
2023-01-20T21:16:27.753Z,86.54
2023-01-20T21:18:56.868Z,86.54
2023-01-20T21:21:25.732Z,86.42
2023-01-20T21:23:55.978Z,86.40
2023-01-20T21:26:27.642Z,86.19
2023-01-20T21:28:57.221Z,85.68
2023-01-20T21:31:26.875Z,85.37
2023-01-20T21:33:58.553Z,85.19
2023-01-20T21:36:27.214Z,85.12
2023-01-20T21:38:55.342Z,84.87
2023-01-20T21:41:23.207Z,84.57
2023-01-20T21:44:09.613Z,84.66
2023-01-20T21:46:40.280Z,84.67
2023-01-20T21:49:47.647Z,84.82
2023-01-20T21:52:36.702Z,85.03
2023-01-20T21:55:06.172Z,85.16
2023-01-20T21:57:34.061Z,84.95
2023-01-20T22:00:03.463Z,84.91
2023-01-20T22:02:31.333Z,84.80
2023-01-20T22:04:59.195Z,84.77
2023-01-20T22:07:27.472Z,84.92
2023-01-20T22:09:57.907Z,84.76
2023-01-20T22:12:26.176Z,84.65
2023-01-20T22:14:53.943Z,84.68
2023-01-20T22:17:21.704Z,84.29
2023-01-20T22:19:49.457Z,84.65
2023-01-20T22:22:17.527Z,84.44
2023-01-20T22:24:45.392Z,84.62
2023-01-20T22:27:13.262Z,84.45
2023-01-20T22:29:41.131Z,84.14
2023-01-20T22:32:09.403Z,84.08
2023-01-20T22:34:37.370Z,84.02
2023-01-20T22:37:05.645Z,84.12
2023-01-20T22:39:33.513Z,84.34
2023-01-20T22:42:01.383Z,84.46
2023-01-20T22:44:29.266Z,84.51
2023-01-20T22:46:57.106Z,84.80
2023-01-20T22:49:24.980Z,84.74
2023-01-20T22:51:54.992Z,84.46
2023-01-20T22:54:22.957Z,84.50
2023-01-20T22:56:50.701Z,84.33
2023-01-20T22:59:18.432Z,84.49
2023-01-20T23:01:46.183Z,84.57
2023-01-20T23:04:15.172Z,84.63
2023-01-20T23:06:42.922Z,84.60
2023-01-20T23:09:12.974Z,84.64
2023-01-20T23:11:41.455Z,84.73
2023-01-20T23:14:12.949Z,84.96
2023-01-20T23:16:41.257Z,84.94
2023-01-20T23:19:10.044Z,84.85
2023-01-20T23:21:37.889Z,84.70
2023-01-20T23:24:05.750Z,84.75
2023-01-20T23:26:34.378Z,84.74
2023-01-20T23:29:02.111Z,84.66
2023-01-20T23:31:33.401Z,84.50
2023-01-20T23:34:01.244Z,84.57
2023-01-20T23:36:29.067Z,84.29
2023-01-20T23:38:57.264Z,84.20
2023-01-20T23:41:25.660Z,84.34
2023-01-20T23:43:53.495Z,84.48
2023-01-20T23:46:21.446Z,84.43
2023-01-20T23:48:49.448Z,84.40
2023-01-20T23:51:17.626Z,84.46
2023-01-20T23:53:45.387Z,84.57
2023-01-20T23:56:16.491Z,84.58
2023-01-20T23:58:45.149Z,84.62
